Timeline UpdatesTrip UpdatesNews PostsPvt PostsTravel TipsAdmin PostsConv PostsFollowed PostsChat RequestsBlog PostsPNR Posts

Disclaimer
Search
 
 
Mon Sep 22, 2014 21:46:52 ISTHomeTrainsΣChainsAtlasPNRForumGalleryNewsFAQTripsMembersLoginFeedback
No Recent News for this Train
Other Trains in the News **new
Latest...
Will be controlled for 85 minutes between Mughalsarai-Gaya on 3,7,10 July 2014 #1152832
Wed Jul 02, 2014 (03:39PM)
⇐ Return Journey: Train# 53521

53522/Varanasi-Asansol Passenger (UnReserved)

Time-Table HAS CHANGED.
Sep 03 (2:51PM)
Change Departure Station:
Change Arrival Station:
Post a Train Travel TipPost a Train Travel Tip **new
Post a Comment/Question/Picture/VideoPost a Comment/Question/Picture/Video
Pantry/Catering
✕ NO Pantry Car
✕ NO Catering
RSA - Rake Sharing
Rake/Coach Composition
Loco
WAG 7 LDH
News    PNR    Forum    Time-Table    Availability    Fare Chart    Map    Arr/Dep History    Trips    Gallery    ΣChains    X/O    Timeline    
Travel Time: 16h 35m    80 halts    Distance: 480 km    Avg Speed: 28 km/hr
Type: Passenger
Zone: ER/Eastern
Departs @ 04:25 (Avg 11m late)
Platform# 1
SMTWTFS
Varanasi Junction/BSB 
Arrives @ 21:00 (Avg 1h 26m late)
Platform# ???
SMTWTFS
Asansol Junction/ASN 

80 halts. 86 intermediate Stations between Varanasi Junction and Asansol Junction

Show ALL intermediate Stations  Show Old Time-Table

#CodeStation NameX/OArrivesAvgDepartsAvgHaltPFDay#KmSpeedElevZoneAddress
1BSBVaranasi Junction (9)»  -04:25+11110.02782mNRVaranasi 221002, Uttar Pradesh
2KEIKashi (3)  04:37+3504:38+391m--15.32485mNRVaranasi, Uttar Pradesh
3VYNVyasnagar  04:51+3804:52+381m--110.61281mNRNational Highway 2, Uttar Pradesh
4MGSMughal Sarai Junction (8)X  05:20+1305:30+1710m--116.34883mECRMughalsarai 232101, Uttar Pradesh
5GAQGanj Khawaja  05:40 05:41+1:1505:42+1:212 1m--125.15779mECRChandauli Mjhwr, Uttar Pradesh
6CDMRChandauli MajhwarX  05:50 05:51+1:2605:52+1:322 1m--133.77280mECRNational Highway 2, Uttar Pradesh
7SYJSaidrajaX  05:59+1:3306:01+1:372m--142.16280mECRSaiyedraja, Uttar Pradesh
8KMSKaramnasa  06:08 06:09+1:3706:10+1:372 1m--150.35378mECRNational Highway 2, Uttar Pradesh
9DCXDhanaichhaXO  06:16 06:17+1:3806:18+1:382 1m--156.53275mECRNational Highway 2, Bihar
10DGODurgautiX  06:25 06:28+1:2806:27 06:29+1:322 1m--161.92776mECRDistt Kaimur, Bihar
11BBUBhabua Road (4)XO  06:49+1:3006:51 06:50+1:322 1m--170.81680mECR06187-222222, Bihar
12MTGEMuthaniX  06:58 07:10+1:3107:00 07:11+1:352 1m--176.35283mECRNational Highway 2, Bihar
13PSEPusauliX  07:08 07:20+1:3707:10 07:21+1:412 1m--184.26086mECRDistt: Rohtas, Bihar
14KTQKudra (2)XO  07:22 07:30+1:3907:24 07:31+1:442 1m--193.25292mECRKudra, Bihar
15KVDKhurmabad RoadX  07:31 07:39+1:4507:33 07:40+1:462 1m--1100.14193mECRKhurmabad, Bihar
16SSGShiu Sagar RoadXO  07:40 07:47+1:4407:42 07:48+1:442 1m--1104.94299mECRShiu Sagar Rd, Bihar
17KMGEKumahuXO  07:50 07:56+1:4507:52 07:57+1:472 1m--1110.59101mECRKamahu, Bihar
18SSMSasaram Junction (4)  08:05 08:48+1:3608:07 08:49+1:432 1m31118.433111mECR06184-222051, Bihar
19KWDKarwandia  08:13 09:01+1:5108:15 09:02+1:532 1m--1124.950113mECRKarwandiya, Bihar
20PHEPahaleja Halt  08:22 09:10+1:5408:24 09:11+1:542 1m--1131.634112mECRPahaleja, Bihar
21DOSDehri On Sone (6)  08:35 09:19+1:4508:40 09:24+1:485m--1136.149114mECRRohtas(06184-253154), Bihar
22SEBSon Nagar Junction (4)X  08:48 09:31+2:0208:50 09:32+2:052 1m21141.858110mECRBarun, Bihar
23CPBHChiraila  08:57 09:38+2:0508:59 09:39+2:052 1m21147.643104mECRBarun, Bihar
24AUBRAnugraha Narayan Road (4)  09:06 09:46+1:4009:08 09:47+1:412 1m31152.7107104mECR06186-285271, Bihar
25PESPhesar  09:20 09:52+2:1009:22 09:53+2:102 1m21161.619104mECRpheshar, Bihar
26BHKHBaghoi Kusa  09:29 10:07+2:0809:31 10:08+2:082 1m--1166.14998mECRbel Rd, Bihar
27JHNJakhim  10:17 10:16+1:3510:19 10:17+1:412 1m--1172.73893mECRbel Rd, Bihar
28DORDDeo Road  10:25 10:23+1:4110:27 10:24+1:412 1m--1176.453102mECRMaluk Bigha, Bihar
29RFJRafiGanj (4)X  10:45 10:32+1:0310:47 10:33+1:062 1m--1183.526102mECRRafiganj, Bihar
30IMGEIsmailpur  10:55 10:54+1:4010:57 10:55+1:482 1m--1192.852114mECRState Highway 69, Bihar
31GRRUGuraru  11:04 11:03+1:5011:06 11:04+1:502 1m21199.644114mECRGuraru, Bihar
32PRYParaiyaO  11:13 11:12+1:5011:15 11:13+1:532 1m--1205.627111mECRparaiya station Rd, Bihar
33KSTAKastha  11:28 11:29+1:4911:30+1:512 1m--1212.736113mECRGaya, Bihar
34GAYAGaya Junction (9)  11:44+1:2111:54+1:2310m21221.117117mECR0631-2220283, Bihar
35MPOManpur Junction (4)  12:13+1:5912:15+2:112m--1226.462113mECRGaya, Bihar
36BNFBandhuaX  12:17 12:22+2:3112:27 12:24+2:2610 2m--1233.646124mECRState Highway 70, Bihar
37TKNTankuppa  12:34+2:2612:36+2:262m--1241.252127mECRState Highway 70, Bihar
38BNSLBansinala Halt  12:43+2:2612:44+2:261m--1247.253135mECRBansinala, Bihar
39PRPPaharpurX  12:51+2:2612:52+2:281m--1253.554150mECRGaya, Bihar
40GAPGurpa (4)  13:05+2:2813:06+3:071m--1265.129192mECRLodhwe, Bihar
41YGMYadugram Block Hut  13:13+3:2813:14+3:281m--1268.536210mECRYadugram Block Hut, Jharkhand
42BSCPBaskatwa B. H. new halt!!  13:22+3:2613:23+3:271m--1273.218273mECRMurli, Bihar
43NGYNath Ganj  13:28+3:5013:29+3:501m--1274.746284mECRMurli, Bihar
44DLWDilwa (2)X  13:37+3:5013:38+3:511m--1280.930346mECRNational Highway 31, Bihar
45LBZLalbag Block HutX  13:47+3:5013:48+3:501m--1285.426389mECRState Highway 70, Bihar
46GJDGujhandi (4)X  13:53+3:5913:54+4:021m--1287.554386mECRNational Highway 31, Jharkhand
47KQRKoderma Junction (7)  14:06 14:05+2:1014:07+2:111 2m--1297.528399mECR06534-222410 Koderma, Jharkhand
48LRBLarabad  14:17+4:0014:18+4:001m--1302.139393mECRJhumri Telaiya, Jharkhand
49HREHirodih (4)  14:25+3:5814:26+4:041m--1306.752371mECRJhumri Telaiya, Jharkhand
50SMNDSarmatanr (4)  14:35+4:0314:36+4:061m--1314.434351mECRKoderma, Jharkhand
51YDDYadudih (2)  14:43+4:0614:44+4:061m--1318.455352mECRNational Highway 2, Jharkhand
52PSBParsabad (4)  14:50+4:0714:51+4:071m--1323.965346mECRNational Highway 2, Jharkhand
53DSMEDasara (2)X  14:57+4:0714:58+4:071m--1330.449342mECRSariya - Parsiya Road, Jharkhand
54CBHChaube (4)O  15:04+4:0615:06+4:062m--1335.312325mECRParsabad, Jharkhand
55KSHRKeshwari  15:27 15:31+3:4915:28 15:32+3:491m--1340.157313mECRMandramo, Jharkhand
56HZDHazaribagh Road (4)  15:34 15:38+3:0815:35 15:39+3:081m--1345.852330mECRHazaribagh, Jharkhand
57GRBHGarea Bihar new halt!!  15:47+3:3615:48+3:371m--1352.817315mECRSariya - Parsiya Rd, Jharkhand
58CCKChichaki (4)  15:50 15:55+3:4915:51 15:56+3:491m--1354.719308mECRNational Highway 2, Jharkhand
59KRMBKarmabad new halt!!  16:00+3:5816:02+3:572m--1356.08323m???Koyridih, Jharkhand
60CDBChaudhribandh (4)XO  16:10+3:4616:12+3:452m--1357.09314mECRMaipatoli, Jharkhand
61CEMEChegroXO  16:42+3:2116:43+3:211m--1361.343333mECRBeko, Jharkhand
62PNMEParasnath (5)  17:03 17:01+2:5517:08 17:03+2:525 2m--1374.338282mECRGiridih 06532-233419, Jharkhand
63NMGNimiaghat (4)  17:15+3:0317:16+3:091m--1381.956268mECRNational Highway 2, Jharkhand
64BLMEBholldih (2)X  17:22+3:0817:23+3:081m--1387.513241mECRGomoh, Jharkhand
65GMONetaji SC Bose Gomoh Junction (6)X  17:45+2:3717:55+2:3410m--1392.452239mECRGomoh, Jharkhand
66MRQMatari (3)  18:06+3:1818:07+3:191m--1401.853246mECRDhanbad, Jharkhand
67NPJENichitpur (2)  18:13+3:2018:14+3:211m--1407.150224mECRKatras, Jharkhand
68TETTetulmari (2)O  18:21+3:2118:22+3:221m--1413.032225mECRTetulmari, Jharkhand
69BHNBhuli (2)  18:32+3:2018:33+3:201m--1418.37230mECRKusunda, Jharkhand
70DHNDhanbad Junction (8)X  19:05+1:2919:15+1:2910m--1422.145235mECR2319801. Div. HQ ECR, Jharkhand
71DOKMDokra Halt (2)  19:22+2:5919:23+2:591m--1427.438211mECRDokra, Jharkhand
72PKAPradhankhunta Junction (3)X  19:29+2:5919:30+3:001m--1431.246202mECRDhanbad, Jharkhand
73CAMChhota Ambana (3)X  19:38+3:0319:39+3:031m--1437.490200mERDhanbad, Jharkhand
74KAOKalubathan (2)  19:45+3:0619:46+3:061m--1446.451195mERDhanbad, Jharkhand
75TNWThapar Nagar (2)X  19:51+3:0719:52+3:071m--1450.753144mERDhanbad, Jharkhand
76MMUMugma (3)  19:58+3:0919:59+3:141m--1456.056135mERNational Highway 2, Jharkhand
77KMMEKumardubi (2)X  20:04+2:5120:05+2:541m--1460.638135mERDhanbad - 828203(06540-222077), Jharkhand
78BRRBarakar (2)O  20:09+3:2020:10+3:211m--1463.149129mERDist. Bardhaman, West Bengal
79ULTKulti (3)X  20:14+3:2220:15+3:221m--1466.412148mERdist - bardhaman, West Bengal
80STNSitarampur Junction (5)X  20:40+3:0420:41+3:081m21471.637139mERG T Rd Before Asansol, West Bengal
81BCQBarachak Junction (4)  20:47+3:1120:48+3:111m--1475.325127mERdist - bardhaman, West Bengal
82ASNAsansol Junction (7)•  21:00+1:26---1480.3-113mERDist - Bardhaman, West Bengal
Scroll to Top
Scroll to Bottom